Time;durP1;ratioP1;P1;durP2;ratioP2;P2;SDS_P1;SDS_P2;PMS_P1;PMS_P2;Temp;Humidity;BMP_temperature;BMP_pressure;BME280_temperature;BME280_humidity;BME280_pressure;Samples;Min_cycle;Max_cycle;Signal;HPM_P1;HPM_P2
2022/10/30 00:02:19;;;;;;;;;;;;;;;9.39;81.78;100541.50;5015453;28;2840;-77
2022/10/30 00:04:45;;;;;;;;;;;;;;;9.33;82.04;100546.66;5035090;28;1831;-76
2022/10/30 00:07:12;;;;;;;;;;;;;;;9.35;82.17;100540.25;5019778;28;1610;-76
2022/10/30 00:09:38;;;;;;;;;;;;;;;9.38;81.85;100532.56;5035873;28;1844;-76
2022/10/30 00:12:04;;;;;;;;;;;;;;;9.32;82.17;100533.44;5013302;28;1811;-76
2022/10/30 00:14:30;;;;;;;;;;;;;;;9.27;82.21;100528.69;5035875;28;2012;-76
2022/10/30 00:16:57;;;;;;;;;;;;;;;9.28;82.30;100542.97;5039462;28;1607;-76
2022/10/30 00:19:25;;;;;;;;;;;;;;;9.26;82.13;100551.22;5036748;28;1681;-76
2022/10/30 00:21:56;;;;;;;;;;;;;;;8.96;82.03;100496.34;5038027;28;1745;-76
2022/10/30 00:24:22;;;;;;;;;;;;;;;9.25;82.07;100541.50;5034890;28;1769;-76
2022/10/30 00:26:49;;;;;;;;;;;;;;;9.26;81.98;100540.47;5026047;28;1994;-76
2022/10/30 00:29:15;;;;;;;;;;;;;;;9.24;82.12;100534.50;5009333;28;1596;-76
2022/10/30 00:31:41;;;;;;;;;;;;;;;9.25;82.08;100536.13;5007619;28;1938;-76
2022/10/30 00:34:08;;;;;;;;;;;;;;;9.22;82.01;100533.06;5035205;28;1990;-76
2022/10/30 00:36:34;;;;;;;;;;;;;;;9.24;82.00;100541.75;5035621;28;1791;-76
2022/10/30 00:39:00;;;;;;;;;;;;;;;9.23;81.98;100534.69;5016399;28;1721;-76
2022/10/30 00:41:29;;;;;;;;;;;;;;;9.20;82.13;100541.31;5037965;28;1658;-76
2022/10/30 00:43:58;;;;;;;;;;;;;;;9.21;81.92;100542.16;5035156;28;1973;-76
2022/10/30 00:46:24;;;;;;;;;;;;;;;9.18;82.18;100529.97;5016913;28;1829;-76
2022/10/30 00:48:50;;;;;;;;;;;;;;;9.19;81.87;100538.84;5035371;28;1609;-76
2022/10/30 00:51:17;;;;;;;;;;;;;;;9.18;81.81;100537.22;5035454;28;1693;-76
2022/10/30 00:53:43;;;;;;;;;;;;;;;9.18;82.04;100537.22;5036659;28;1983;-76
2022/10/30 00:56:10;;;;;;;;;;;;;;;9.16;81.81;100537.41;5035264;28;1990;-76
2022/10/30 00:58:36;;;;;;;;;;;;;;;9.15;81.97;100533.09;5036647;28;1606;-76
2022/10/30 01:01:02;;;;;;;;;;;;;;;9.15;81.99;100537.59;5038118;28;1808;-76
2022/10/30 01:03:29;;;;;;;;;;;;;;;9.16;81.83;100533.91;5035270;28;2555;-76
2022/10/30 01:05:55;;;;;;;;;;;;;;;9.17;81.69;100535.53;5035054;28;1555;-76
2022/10/30 01:08:21;;;;;;;;;;;;;;;9.16;81.68;100533.91;5014229;28;1817;-76
2022/10/30 01:10:48;;;;;;;;;;;;;;;9.12;81.65;100532.66;5020084;28;1548;-76
2022/10/30 01:13:19;;;;;;;;;;;;;;;9.10;81.77;100544.44;5035295;28;2110;-76
2022/10/30 01:15:45;;;;;;;;;;;;;;;9.10;82.02;100549.00;5035047;28;1976;-76
2022/10/30 01:18:20;;;;;;;;;;;;;;;9.10;81.84;100552.50;5033257;28;1658;-76
2022/10/30 01:20:46;;;;;;;;;;;;;;;9.08;81.84;100551.88;5037903;28;2034;-75
2022/10/30 01:23:12;;;;;;;;;;;;;;;9.08;81.89;100562.63;5022593;28;2088;-76
2022/10/30 01:25:39;;;;;;;;;;;;;;;8.73;81.78;100511.03;5016006;28;1624;-76
2022/10/30 01:28:05;;;;;;;;;;;;;;;9.03;81.94;100577.72;5034273;28;1601;-76
2022/10/30 01:30:31;;;;;;;;;;;;;;;9.03;81.72;100567.84;5022829;28;1639;-76
2022/10/30 01:32:58;;;;;;;;;;;;;;;9.04;81.59;100565.97;5012157;28;1905;-76
2022/10/30 01:35:25;;;;;;;;;;;;;;;9.02;81.92;100570.72;5015564;28;1987;-76
2022/10/30 01:37:51;;;;;;;;;;;;;;;9.06;81.80;100571.97;5018049;28;1718;-76
2022/10/30 01:40:19;;;;;;;;;;;;;;;8.99;81.97;100574.63;5033849;28;1613;-76
2022/10/30 01:42:45;;;;;;;;;;;;;;;8.96;81.70;100569.69;5035719;28;1728;-76
2022/10/30 01:45:11;;;;;;;;;;;;;;;9.01;81.74;100580.63;5034331;28;1393;-77
2022/10/30 01:47:37;;;;;;;;;;;;;;;9.07;81.30;100579.78;5042662;28;1163;-76
2022/10/30 01:50:06;;;;;;;;;;;;;;;8.99;81.66;100576.50;5036122;28;1203;-77
2022/10/30 01:52:32;;;;;;;;;;;;;;;9.02;81.36;100559.97;5053633;28;1958;-76
2022/10/30 01:54:58;;;;;;;;;;;;;;;8.93;81.93;100567.41;5047739;28;2186;-77
2022/10/30 01:57:24;;;;;;;;;;;;;;;8.92;81.85;100564.94;5054250;28;1383;-76
2022/10/30 01:59:51;;;;;;;;;;;;;;;8.92;81.47;100568.47;5015157;28;1621;-76
2022/10/30 02:02:17;;;;;;;;;;;;;;;8.94;81.51;100568.22;5029169;28;5243;-76
2022/10/30 02:04:43;;;;;;;;;;;;;;;8.90;81.66;100558.94;5035212;28;4859;-76
2022/10/30 02:07:10;;;;;;;;;;;;;;;8.92;81.61;100563.09;5033785;28;1751;-76
2022/10/30 02:09:36;;;;;;;;;;;;;;;8.86;81.71;100564.75;5037024;28;4778;-77
2022/10/30 02:12:02;;;;;;;;;;;;;;;8.85;81.91;100563.09;5035882;28;1585;-76
2022/10/30 02:14:29;;;;;;;;;;;;;;;8.92;81.37;100564.94;5033007;28;1926;-76
2022/10/30 02:16:55;;;;;;;;;;;;;;;8.85;81.76;100565.78;5029039;28;1593;-76
2022/10/30 02:19:21;;;;;;;;;;;;;;;8.83;81.61;100572.41;5057468;28;1978;-76
2022/10/30 02:21:48;;;;;;;;;;;;;;;8.82;81.91;100568.03;5045619;28;4066;-76
2022/10/30 02:24:14;;;;;;;;;;;;;;;8.78;81.71;100570.31;5035963;28;1698;-76
2022/10/30 02:26:40;;;;;;;;;;;;;;;8.81;81.40;100572.59;5019955;28;1828;-76
2022/10/30 02:29:06;;;;;;;;;;;;;;;8.80;81.71;100580.88;5038043;28;1871;-76
2022/10/30 02:31:33;;;;;;;;;;;;;;;8.77;81.88;100579.41;5040160;28;2106;-76
2022/10/30 02:33:59;;;;;;;;;;;;;;;8.81;81.50;100587.88;5033282;28;2558;-76
2022/10/30 02:36:25;;;;;;;;;;;;;;;8.76;81.84;100576.94;5033970;28;1746;-76
2022/10/30 02:38:55;;;;;;;;;;;;;;;8.72;81.62;100573.00;5010488;28;1905;-76
2022/10/30 02:41:21;;;;;;;;;;;;;;;8.71;81.60;100566.00;5041673;28;1611;-77
2022/10/30 02:43:47;;;;;;;;;;;;;;;8.70;81.97;100569.69;5057261;28;1421;-77
2022/10/30 02:46:13;;;;;;;;;;;;;;;8.67;81.85;100560.19;5039647;28;1183;-77
2022/10/30 02:48:40;;;;;;;;;;;;;;;8.67;82.09;100567.44;5056944;28;1970;-76
2022/10/30 02:51:06;;;;;;;;;;;;;;;8.68;81.81;100569.91;5058225;28;2046;-77
2022/10/30 02:53:32;;;;;;;;;;;;;;;8.67;81.52;100570.94;5039157;28;1391;-77
2022/10/30 02:55:59;;;;;;;;;;;;;;;8.68;81.65;100569.91;5021493;28;1918;-76
2022/10/30 02:58:25;;;;;;;;;;;;;;;8.66;81.72;100573.84;5018097;28;1811;-76
2022/10/30 03:00:51;;;;;;;;;;;;;;;8.69;81.59;100578.81;5037923;28;1817;-76
2022/10/30 03:03:17;;;;;;;;;;;;;;;8.66;81.92;100576.53;5038052;28;1693;-76
2022/10/30 03:05:44;;;;;;;;;;;;;;;8.68;81.41;100574.44;5019097;28;1623;-76
2022/10/30 03:08:11;;;;;;;;;;;;;;;8.63;81.43;100581.25;5039246;28;1936;-76
2022/10/30 03:10:37;;;;;;;;;;;;;;;8.62;81.88;100581.50;5038011;28;1591;-76
2022/10/30 03:13:03;;;;;;;;;;;;;;;8.65;81.70;100586.44;5025399;28;1680;-76
2022/10/30 03:15:30;;;;;;;;;;;;;;;8.61;81.47;100586.00;5039578;28;1906;-76
2022/10/30 03:17:56;;;;;;;;;;;;;;;8.58;81.87;100582.91;5039015;28;1895;-76
2022/10/30 03:20:22;;;;;;;;;;;;;;;8.56;81.74;100582.28;5020762;28;1894;-76
2022/10/30 03:22:51;;;;;;;;;;;;;;;8.55;81.73;100584.16;5020044;28;1660;-76
2022/10/30 03:25:22;;;;;;;;;;;;;;;8.54;81.59;100584.38;5041498;28;1978;-76
2022/10/30 03:27:48;;;;;;;;;;;;;;;8.52;81.77;100587.25;5039000;28;1902;-76
2022/10/30 03:30:14;;;;;;;;;;;;;;;8.52;81.69;100586.41;5017154;28;1644;-76
2022/10/30 03:32:41;;;;;;;;;;;;;;;8.50;81.70;100585.78;5015902;28;1646;-76
2022/10/30 03:35:07;;;;;;;;;;;;;;;8.49;81.89;100593.03;5054374;28;1980;-77
2022/10/30 03:37:33;;;;;;;;;;;;;;;8.48;81.58;100588.69;5056147;28;2172;-77
2022/10/30 03:39:59;;;;;;;;;;;;;;;8.52;81.33;100594.47;5037988;28;1313;-77
2022/10/30 03:42:26;;;;;;;;;;;;;;;8.49;81.52;100592.19;5034274;28;1693;-76
2022/10/30 03:44:52;;;;;;;;;;;;;;;8.52;81.23;100592.63;5034986;28;1636;-77
2022/10/30 03:47:18;;;;;;;;;;;;;;;8.45;81.57;100586.44;5058948;28;1953;-76
2022/10/30 03:49:45;;;;;;;;;;;;;;;8.41;81.57;100579.78;5022701;28;1616;-76
2022/10/30 03:52:11;;;;;;;;;;;;;;;8.40;81.70;100587.03;5036333;28;1679;-76
2022/10/30 03:54:39;;;;;;;;;;;;;;;8.41;81.70;100579.78;5039237;28;1941;-76
2022/10/30 03:57:06;;;;;;;;;;;;;;;8.40;81.77;100581.66;5035510;28;2006;-76
2022/10/30 03:59:33;;;;;;;;;;;;;;;8.42;81.42;100581.47;5035596;28;1567;-76
2022/10/30 04:02:00;;;;;;;;;;;;;;;8.41;81.35;100594.06;5038052;28;1603;-76
2022/10/30 04:04:26;;;;;;;;;;;;;;;8.39;81.45;100595.28;5036215;28;1941;-76
2022/10/30 04:06:53;;;;;;;;;;;;;;;8.38;81.74;100590.91;5036151;28;1871;-76
2022/10/30 04:09:19;;;;;;;;;;;;;;;8.40;81.68;100584.34;5039111;28;1552;-76
2022/10/30 04:11:45;;;;;;;;;;;;;;;8.37;81.75;100590.09;5036529;28;1824;-76
2022/10/30 04:14:12;;;;;;;;;;;;;;;8.35;81.40;100594.00;5037933;28;1914;-77
2022/10/30 04:16:38;;;;;;;;;;;;;;;8.33;81.77;100596.09;5000279;28;1978;-76
2022/10/30 04:19:06;;;;;;;;;;;;;;;8.33;81.88;100593.41;5036202;28;1576;-76
2022/10/30 04:21:32;;;;;;;;;;;;;;;8.33;81.56;100590.72;5018479;28;1576;-76
2022/10/30 04:24:01;;;;;;;;;;;;;;;8.32;81.59;100591.72;5048001;28;1551;-77
2022/10/30 04:26:27;;;;;;;;;;;;;;;8.31;81.39;100585.53;5055237;28;1997;-76
2022/10/30 04:28:54;;;;;;;;;;;;;;;8.28;81.47;100585.94;5055118;28;1290;-77
2022/10/30 04:31:20;;;;;;;;;;;;;;;8.27;81.50;100578.13;5037606;28;1365;-77
2022/10/30 04:33:46;;;;;;;;;;;;;;;8.27;81.45;100584.31;5047919;28;4923;-76
2022/10/30 04:36:12;;;;;;;;;;;;;;;8.25;81.63;100591.72;5038018;28;3988;-76
2022/10/30 04:38:39;;;;;;;;;;;;;;;8.26;81.64;100595.22;5033391;28;4032;-77
2022/10/30 04:41:05;;;;;;;;;;;;;;;8.23;81.29;100583.03;5064497;28;1482;-77
2022/10/30 04:43:33;;;;;;;;;;;;;;;8.23;81.33;100590.28;5047009;28;1950;-77
2022/10/30 04:46:00;;;;;;;;;;;;;;;8.21;81.68;100595.84;5015388;28;1581;-77
2022/10/30 04:48:26;;;;;;;;;;;;;;;8.20;81.39;100591.50;5054864;28;1870;-76
2022/10/30 04:50:52;;;;;;;;;;;;;;;8.20;81.55;100592.31;5045070;28;3504;-76
2022/10/30 04:53:19;;;;;;;;;;;;;;;8.17;81.64;100594.59;5033845;28;1928;-77
2022/10/30 04:55:46;;;;;;;;;;;;;;;8.16;81.62;100604.50;5054651;28;1914;-77
2022/10/30 04:58:12;;;;;;;;;;;;;;;8.17;81.56;100599.94;5036627;28;1304;-77
2022/10/30 05:00:38;;;;;;;;;;;;;;;8.15;81.68;100588.63;5031633;28;1025;-76
2022/10/30 05:03:05;;;;;;;;;;;;;;;8.13;81.40;100594.16;5052659;28;3022;-76
2022/10/30 05:05:31;;;;;;;;;;;;;;;8.11;81.67;100606.13;5036937;28;2388;-77
2022/10/30 05:07:57;;;;;;;;;;;;;;;8.10;81.67;100596.44;5049024;28;998;-77
2022/10/30 05:10:24;;;;;;;;;;;;;;;8.09;81.61;100592.94;5052056;28;2322;-76
2022/10/30 05:12:50;;;;;;;;;;;;;;;8.12;81.37;100603.25;5056262;28;2030;-77
2022/10/30 05:15:16;;;;;;;;;;;;;;;8.11;81.56;100603.44;5054295;28;1989;-77
2022/10/30 05:17:42;;;;;;;;;;;;;;;8.14;81.18;100611.91;5054441;28;1075;-77
2022/10/30 05:20:09;;;;;;;;;;;;;;;8.11;81.27;100615.00;5036187;28;1260;-77
2022/10/30 05:22:35;;;;;;;;;;;;;;;8.08;81.16;100615.41;5054077;28;2029;-76
2022/10/30 05:25:03;;;;;;;;;;;;;;;8.03;81.51;100617.03;5049502;28;888;-76
2022/10/30 05:27:30;;;;;;;;;;;;;;;8.02;81.47;100618.06;5053854;28;1124;-76
2022/10/30 05:29:56;;;;;;;;;;;;;;;8.03;81.36;100622.41;5051315;28;1072;-76
2022/10/30 05:32:23;;;;;;;;;;;;;;;8.02;81.34;100628.81;5036659;28;1998;-76
2022/10/30 05:34:49;;;;;;;;;;;;;;;7.98;81.75;100617.66;5036080;28;1979;-77
2022/10/30 05:37:16;;;;;;;;;;;;;;;8.00;81.60;100625.47;5053460;28;1160;-77
2022/10/30 05:39:42;;;;;;;;;;;;;;;7.96;81.50;100627.75;5031237;28;2005;-76
2022/10/30 05:42:08;;;;;;;;;;;;;;;7.98;81.68;100631.06;5041470;28;1083;-76
2022/10/30 05:44:35;;;;;;;;;;;;;;;7.94;81.56;100637.84;5033664;28;1768;-76
2022/10/30 05:47:01;;;;;;;;;;;;;;;7.95;81.69;100634.16;5030606;28;1936;-77
2022/10/30 05:49:27;;;;;;;;;;;;;;;7.94;81.26;100627.09;5043553;28;1943;-76
2022/10/30 05:51:53;;;;;;;;;;;;;;;7.94;81.28;100641.38;5044683;28;1968;-76
2022/10/30 05:54:25;;;;;;;;;;;;;;;7.93;81.24;100628.16;5053958;28;1647;-76
2022/10/30 05:57:00;;;;;;;;;;;;;;;7.89;81.48;100638.47;5051756;28;1914;-76
2022/10/30 05:59:30;;;;;;;;;;;;;;;7.90;81.58;100641.97;5051820;28;1945;-76
2022/10/30 06:01:57;;;;;;;;;;;;;;;7.88;81.58;100644.84;5054054;28;1199;-76
2022/10/30 06:04:23;;;;;;;;;;;;;;;7.89;81.18;100645.69;5054306;28;1199;-77
2022/10/30 06:06:52;;;;;;;;;;;;;;;7.88;81.52;100636.81;5053927;28;1108;-76
2022/10/30 06:09:18;;;;;;;;;;;;;;;7.85;81.38;100644.41;5053396;28;2072;-76
2022/10/30 06:11:44;;;;;;;;;;;;;;;7.86;81.53;100646.06;5053640;28;2086;-76
2022/10/30 06:14:10;;;;;;;;;;;;;;;7.83;81.52;100641.13;5053580;28;2070;-76
2022/10/30 06:16:37;;;;;;;;;;;;;;;7.80;81.57;100636.16;5053704;28;1969;-77
2022/10/30 06:19:03;;;;;;;;;;;;;;;7.83;81.59;100639.25;5033397;28;1191;-77
2022/10/30 06:21:29;;;;;;;;;;;;;;;7.82;81.61;100639.44;5068504;28;1918;-76
2022/10/30 06:23:58;;;;;;;;;;;;;;;7.81;81.54;100641.31;5049834;28;1856;-76
2022/10/30 06:26:25;;;;;;;;;;;;;;;7.78;81.28;100644.38;5035607;28;1092;-77
2022/10/30 06:28:52;;;;;;;;;;;;;;;7.78;81.13;100640.88;5032368;28;1184;-77
2022/10/30 06:31:18;;;;;;;;;;;;;;;7.78;81.33;100638.19;5038245;28;1164;-77
2022/10/30 06:33:45;;;;;;;;;;;;;;;7.78;81.32;100648.91;5016176;28;1137;-76
2022/10/30 06:36:11;;;;;;;;;;;;;;;7.77;81.19;100663.38;5043350;28;1935;-76
2022/10/30 06:38:37;;;;;;;;;;;;;;;7.74;81.36;100660.03;5044566;28;4079;-77
2022/10/30 06:41:03;;;;;;;;;;;;;;;7.76;81.35;100661.69;5032282;28;1900;-77
2022/10/30 06:43:30;;;;;;;;;;;;;;;7.73;81.30;100666.44;5051427;28;1478;-77
2022/10/30 06:45:56;;;;;;;;;;;;;;;7.74;81.19;100673.44;5056330;28;3516;-76
2022/10/30 06:48:25;;;;;;;;;;;;;;;7.69;81.41;100675.88;5036394;28;2021;-76
2022/10/30 06:50:52;;;;;;;;;;;;;;;7.67;81.50;100680.63;5053533;28;1923;-76
2022/10/30 06:53:18;;;;;;;;;;;;;;;7.68;81.58;100676.94;5029207;28;1676;-75
2022/10/30 06:55:44;;;;;;;;;;;;;;;7.66;81.58;100670.94;5030913;28;1906;-76
2022/10/30 06:58:13;;;;;;;;;;;;;;;7.67;81.36;100679.78;5021346;28;2015;-77
2022/10/30 07:00:40;;;;;;;;;;;;;;;7.69;81.27;100677.75;5032858;28;1645;-77
2022/10/30 07:03:07;;;;;;;;;;;;;;;7.64;81.28;100683.69;5037178;28;1154;-77
2022/10/30 07:05:36;;;;;;;;;;;;;;;7.64;81.55;100690.91;5035679;28;1172;-76
2022/10/30 07:08:03;;;;;;;;;;;;;;;7.62;81.21;100680.41;5035646;28;1987;-76
2022/10/30 07:10:29;;;;;;;;;;;;;;;7.60;81.35;100692.34;5017645;28;1629;-77
2022/10/30 07:12:57;;;;;;;;;;;;;;;7.61;81.25;100696.66;5036540;28;1244;-76
2022/10/30 07:15:24;;;;;;;;;;;;;;;7.60;81.47;100695.03;5036215;28;1910;-77
2022/10/30 07:17:51;;;;;;;;;;;;;;;7.61;81.31;100693.97;5036447;28;1987;-76
2022/10/30 07:20:17;;;;;;;;;;;;;;;7.59;81.05;100696.88;5028754;28;1700;-76
2022/10/30 07:22:44;;;;;;;;;;;;;;;7.59;81.32;100696.88;5032137;28;1956;-77
2022/10/30 07:25:10;;;;;;;;;;;;;;;7.54;81.36;100696.63;5018734;28;1129;-77
2022/10/30 07:27:36;;;;;;;;;;;;;;;7.58;81.18;100694.38;5036562;28;1352;-77
2022/10/30 07:30:02;;;;;;;;;;;;;;;7.53;81.12;100689.63;5015876;28;1670;-76
2022/10/30 07:32:29;;;;;;;;;;;;;;;7.53;81.42;100694.13;5020044;28;1651;-77
2022/10/30 07:35:00;;;;;;;;;;;;;;;7.51;81.41;100692.47;5017017;28;1599;-77
2022/10/30 07:37:30;;;;;;;;;;;;;;;7.51;81.44;100680.94;5017554;28;1910;-77
2022/10/30 07:39:56;;;;;;;;;;;;;;;7.51;81.13;100681.75;5001368;28;1548;-77
2022/10/30 07:42:22;;;;;;;;;;;;;;;7.50;81.23;100693.53;5018436;28;1610;-77
2022/10/30 07:44:48;;;;;;;;;;;;;;;7.48;81.20;100697.41;5036538;28;1259;-77
2022/10/30 07:47:15;;;;;;;;;;;;;;;7.48;81.03;100694.72;5034631;28;1843;-77
2022/10/30 07:49:41;;;;;;;;;;;;;;;7.48;81.54;100698.25;5028517;28;1370;-77
2022/10/30 07:52:07;;;;;;;;;;;;;;;7.46;81.24;100700.28;5027933;28;1567;-77
2022/10/30 07:54:33;;;;;;;;;;;;;;;7.44;81.52;100694.31;5029870;28;1864;-77
2022/10/30 07:57:00;;;;;;;;;;;;;;;7.42;81.11;100687.47;5025795;28;1922;-76
2022/10/30 07:59:26;;;;;;;;;;;;;;;7.43;81.38;100695.31;5035108;28;1539;-76
2022/10/30 08:01:52;;;;;;;;;;;;;;;7.43;81.23;100700.66;5020926;28;1487;-77
2022/10/30 08:04:19;;;;;;;;;;;;;;;7.42;81.10;100698.19;5023929;28;1912;-76
2022/10/30 08:06:45;;;;;;;;;;;;;;;7.42;81.06;100699.03;5016147;28;1514;-77
2022/10/30 08:09:11;;;;;;;;;;;;;;;7.42;81.34;100704.38;5035531;28;1485;-77
2022/10/30 08:11:37;;;;;;;;;;;;;;;7.39;81.51;100707.44;5034782;28;1807;-77
2022/10/30 08:14:04;;;;;;;;;;;;;;;7.39;81.03;100718.16;5017625;28;1784;-77
2022/10/30 08:16:30;;;;;;;;;;;;;;;7.38;81.17;100729.06;5020038;28;1950;-77
2022/10/30 08:18:56;;;;;;;;;;;;;;;7.39;81.38;100728.88;5035395;28;1434;-76
2022/10/30 08:21:23;;;;;;;;;;;;;;;7.38;81.11;100737.09;5021208;28;1856;-76
2022/10/30 08:23:50;;;;;;;;;;;;;;;7.39;81.16;100734.25;5022725;28;1504;-76
2022/10/30 08:26:18;;;;;;;;;;;;;;;7.37;81.35;100736.28;5036267;28;1833;-77
2022/10/30 08:28:44;;;;;;;;;;;;;;;7.36;81.29;100729.28;5034605;28;1417;-77
2022/10/30 08:31:10;;;;;;;;;;;;;;;7.34;81.27;100725.13;5041608;28;1672;-77
2022/10/30 08:33:37;;;;;;;;;;;;;;;7.33;81.24;100727.00;5047970;28;1378;-77
2022/10/30 08:36:04;;;;;;;;;;;;;;;7.33;81.31;100713.59;5049460;28;1906;-77
2022/10/30 08:38:30;;;;;;;;;;;;;;;7.34;81.19;100714.41;5043164;28;4580;-77
2022/10/30 08:40:56;;;;;;;;;;;;;;;7.34;81.26;100717.91;5038806;28;4262;-77
2022/10/30 08:43:24;;;;;;;;;;;;;;;7.32;81.43;100722.63;5037176;28;1514;-77
2022/10/30 08:45:50;;;;;;;;;;;;;;;7.33;81.03;100727.00;5016170;28;4272;-77
2022/10/30 08:48:16;;;;;;;;;;;;;;;7.32;81.34;100719.13;5032909;28;1728;-76
2022/10/30 08:50:42;;;;;;;;;;;;;;;7.30;81.42;100710.47;5017795;28;1556;-77
2022/10/30 08:53:10;;;;;;;;;;;;;;;7.31;80.94;100714.81;5012740;28;1661;-77
2022/10/30 08:55:36;;;;;;;;;;;;;;;7.35;80.96;100721.41;5012510;28;1977;-77
2022/10/30 08:58:02;;;;;;;;;;;;;;;7.31;80.93;100718.31;5016353;28;3564;-77
2022/10/30 09:00:29;;;;;;;;;;;;;;;7.33;81.27;100721.63;5033643;28;1619;-76
2022/10/30 09:02:55;;;;;;;;;;;;;;;7.31;80.88;100723.66;5036412;28;1937;-77
2022/10/30 09:05:21;;;;;;;;;;;;;;;7.27;81.16;100723.22;5033538;28;1572;-76
2022/10/30 09:07:47;;;;;;;;;;;;;;;7.30;81.29;100734.59;5032469;28;1989;-77
2022/10/30 09:10:14;;;;;;;;;;;;;;;7.28;81.28;100726.72;5034464;28;2445;-77
2022/10/30 09:12:40;;;;;;;;;;;;;;;7.29;80.92;100723.03;5033425;28;1998;-76
2022/10/30 09:15:06;;;;;;;;;;;;;;;7.28;81.24;100726.72;5032308;28;1906;-76
2022/10/30 09:17:33;;;;;;;;;;;;;;;7.26;81.14;100729.63;5016959;28;1951;-77
2022/10/30 09:19:59;;;;;;;;;;;;;;;7.30;80.73;100737.28;5032204;28;1479;-77
2022/10/30 09:22:25;;;;;;;;;;;;;;;7.30;81.12;100734.59;5018276;28;1487;-77
2022/10/30 09:24:51;;;;;;;;;;;;;;;7.30;81.07;100729.25;5048312;28;1985;-77
2022/10/30 09:27:18;;;;;;;;;;;;;;;7.26;81.20;100726.94;5048255;28;1750;-77
2022/10/30 09:29:44;;;;;;;;;;;;;;;7.28;81.33;100743.63;5046893;28;1521;-76
2022/10/30 09:32:10;;;;;;;;;;;;;;;7.28;80.84;100749.00;5027733;28;1666;-77
2022/10/30 09:34:37;;;;;;;;;;;;;;;7.28;81.15;100748.16;5049500;28;1926;-77
2022/10/30 09:37:03;;;;;;;;;;;;;;;7.26;81.12;100751.06;5046354;28;1922;-76
2022/10/30 09:39:29;;;;;;;;;;;;;;;7.26;81.03;100747.53;5047435;28;1767;-77
2022/10/30 09:41:56;;;;;;;;;;;;;;;7.30;80.80;100746.13;5028189;28;1823;-77
2022/10/30 09:44:22;;;;;;;;;;;;;;;7.27;81.08;100742.00;5043395;28;1516;-76
2022/10/30 09:46:48;;;;;;;;;;;;;;;7.30;80.91;100740.78;5044028;28;1496;-77
2022/10/30 09:49:14;;;;;;;;;;;;;;;7.24;81.08;100737.03;5025097;28;1693;-76
2022/10/30 09:51:41;;;;;;;;;;;;;;;7.26;80.96;100736.81;5027645;28;1982;-77
2022/10/30 09:54:07;;;;;;;;;;;;;;;7.24;81.27;100739.69;5042341;28;2054;-77
2022/10/30 09:56:34;;;;;;;;;;;;;;;7.26;81.27;100745.69;5044205;28;1914;-77
2022/10/30 09:59:00;;;;;;;;;;;;;;;7.24;81.21;100753.09;5026775;28;1497;-77
2022/10/30 10:01:26;;;;;;;;;;;;;;;7.24;81.23;100738.88;5044394;28;2162;-77
2022/10/30 10:03:53;;;;;;;;;;;;;;;7.24;81.19;100750.41;5026521;28;1628;-77
2022/10/30 10:06:19;;;;;;;;;;;;;;;7.26;81.30;100751.06;5046490;28;1536;-77
2022/10/30 10:08:45;;;;;;;;;;;;;;;7.27;81.27;100755.38;5030036;28;2072;-77
2022/10/30 10:11:11;;;;;;;;;;;;;;;7.25;80.93;100765.44;5047454;28;2066;-76
2022/10/30 10:13:38;;;;;;;;;;;;;;;7.24;81.12;100769.16;5046773;28;1556;-77
2022/10/30 10:16:04;;;;;;;;;;;;;;;7.26;80.91;100767.13;5047128;28;1910;-77
2022/10/30 10:18:30;;;;;;;;;;;;;;;7.25;81.33;100760.09;5047503;28;1577;-77
2022/10/30 10:21:00;;;;;;;;;;;;;;;7.26;81.33;100760.91;5048254;28;1997;-77
2022/10/30 10:23:26;;;;;;;;;;;;;;;7.25;81.09;100760.09;5049422;28;1870;-76
2022/10/30 10:25:52;;;;;;;;;;;;;;;7.24;81.41;100763.81;5047660;28;1600;-77
2022/10/30 10:28:19;;;;;;;;;;;;;;;7.24;81.38;100760.31;5045910;28;1640;-77
2022/10/30 10:30:48;;;;;;;;;;;;;;;7.24;81.40;100754.94;5045627;28;1965;-77
2022/10/30 10:33:17;;;;;;;;;;;;;;;7.23;81.47;100762.13;5042583;28;1770;-76
2022/10/30 10:35:43;;;;;;;;;;;;;;;7.25;81.09;100751.25;5041375;28;1803;-77
2022/10/30 10:38:10;;;;;;;;;;;;;;;7.26;81.05;100767.13;5029005;28;1946;-76
2022/10/30 10:40:36;;;;;;;;;;;;;;;7.25;81.39;100745.88;5039788;28;1767;-76
2022/10/30 10:43:04;;;;;;;;;;;;;;;7.23;81.33;100751.41;5038041;28;1523;-76
2022/10/30 10:45:31;;;;;;;;;;;;;;;7.24;81.42;100738.88;5037713;28;1744;-76
2022/10/30 10:47:57;;;;;;;;;;;;;;;7.24;81.42;100742.38;5044855;28;1753;-76
2022/10/30 10:50:23;;;;;;;;;;;;;;;7.25;81.04;100730.63;5054892;28;1813;-77
2022/10/30 10:52:50;;;;;;;;;;;;;;;7.25;81.07;100727.13;5054408;28;1479;-77
2022/10/30 10:55:16;;;;;;;;;;;;;;;7.24;81.37;100731.66;5060597;28;3134;-77
2022/10/30 10:57:42;;;;;;;;;;;;;;;7.24;81.32;100738.88;5056786;28;1910;-77
2022/10/30 11:00:08;;;;;;;;;;;;;;;7.26;81.01;100750.19;5030763;28;1851;-77
2022/10/30 11:02:35;;;;;;;;;;;;;;;7.24;81.11;100750.41;5027223;28;1600;-77
2022/10/30 11:05:01;;;;;;;;;;;;;;;7.24;81.51;100747.72;5036501;28;1507;-77
2022/10/30 11:07:27;;;;;;;;;;;;;;;7.25;81.40;100737.84;5042149;28;1485;-77
2022/10/30 11:09:53;;;;;;;;;;;;;;;7.25;81.06;100737.84;5038555;28;3996;-76
2022/10/30 11:12:20;;;;;;;;;;;;;;;7.27;81.33;100728.59;5023451;28;3925;-77
2022/10/30 11:14:46;;;;;;;;;;;;;;;7.26;80.99;100731.44;5047520;28;3839;-77
2022/10/30 11:17:12;;;;;;;;;;;;;;;7.24;81.08;100733.50;5037424;28;1971;-76
2022/10/30 11:19:39;;;;;;;;;;;;;;;7.24;80.99;100730.84;5019410;28;1836;-77
2022/10/30 11:22:05;;;;;;;;;;;;;;;7.24;81.38;100715.59;5044813;28;1478;-77
2022/10/30 11:24:31;;;;;;;;;;;;;;;7.24;81.14;100720.94;5031931;28;1523;-77
2022/10/30 11:26:57;;;;;;;;;;;;;;;7.25;81.22;100730.63;5052133;28;3977;-76
2022/10/30 11:29:24;;;;;;;;;;;;;;;7.25;81.03;100735.16;5049273;28;1856;-77
2022/10/30 11:31:50;;;;;;;;;;;;;;;7.26;80.94;100726.09;5027704;28;1512;-77
2022/10/30 11:34:17;;;;;;;;;;;;;;;7.26;81.29;100728.78;5051306;28;1616;-77
2022/10/30 11:36:43;;;;;;;;;;;;;;;7.26;81.09;100718.91;5048520;28;1985;-77
2022/10/30 11:39:09;;;;;;;;;;;;;;;7.25;81.00;100719.91;5030182;28;2884;-77
2022/10/30 11:41:35;;;;;;;;;;;;;;;7.26;81.05;100716.22;5033760;28;2081;-77
2022/10/30 11:44:02;;;;;;;;;;;;;;;7.26;81.27;100728.78;5048828;28;1425;-77
2022/10/30 11:46:28;;;;;;;;;;;;;;;7.25;81.17;100733.31;5052822;28;1823;-77
2022/10/30 11:48:54;;;;;;;;;;;;;;;7.26;81.19;100732.31;5029983;28;1776;-77
2022/10/30 11:51:20;;;;;;;;;;;;;;;7.26;81.13;100737.66;5049651;28;1553;-77
2022/10/30 11:53:47;;;;;;;;;;;;;;;7.26;81.09;100742.16;5050677;28;1839;-77
2022/10/30 11:56:13;;;;;;;;;;;;;;;7.26;81.17;100750.19;5048626;28;1376;-77
2022/10/30 11:58:39;;;;;;;;;;;;;;;7.26;81.25;100742.16;5034452;28;2253;-77
2022/10/30 12:01:06;;;;;;;;;;;;;;;7.27;81.00;100738.47;5052466;28;1566;-77
2022/10/30 12:03:32;;;;;;;;;;;;;;;7.28;81.26;100737.44;5032975;28;1758;-77
2022/10/30 12:05:58;;;;;;;;;;;;;;;7.25;81.25;100725.28;5053196;28;1472;-77
2022/10/30 12:08:24;;;;;;;;;;;;;;;7.28;81.34;100716.00;5041607;28;1864;-76
2022/10/30 12:10:51;;;;;;;;;;;;;;;7.28;80.91;100730.25;5020063;28;1920;-76
2022/10/30 12:13:28;;;;;;;;;;;;;;;7.28;81.33;100734.78;5042972;28;1737;-76
2022/10/30 12:15:54;;;;;;;;;;;;;;;7.28;81.02;100729.41;5031860;28;1580;-77
2022/10/30 12:18:21;;;;;;;;;;;;;;;7.27;81.02;100739.31;5049678;28;1987;-76
2022/10/30 12:20:47;;;;;;;;;;;;;;;7.27;81.26;100733.13;5051966;28;1378;-77
2022/10/30 12:23:13;;;;;;;;;;;;;;;7.29;81.35;100733.75;5054203;28;1555;-77
2022/10/30 12:25:39;;;;;;;;;;;;;;;7.30;81.14;100726.56;5049332;28;1825;-77
2022/10/30 12:28:06;;;;;;;;;;;;;;;7.29;81.13;100731.06;5037609;28;1288;-77
2022/10/30 12:30:32;;;;;;;;;;;;;;;7.29;81.43;100714.97;5029908;28;1571;-77
2022/10/30 12:32:58;;;;;;;;;;;;;;;7.28;81.33;100716.84;5037807;28;1153;-77
2022/10/30 12:35:24;;;;;;;;;;;;;;;7.30;81.09;100721.19;5050635;28;1911;-77
2022/10/30 12:37:51;;;;;;;;;;;;;;;7.28;81.02;100722.19;5055375;28;1909;-77
2022/10/30 12:40:17;;;;;;;;;;;;;;;7.30;80.95;100724.69;5047129;28;2181;-77
2022/10/30 12:42:43;;;;;;;;;;;;;;;7.30;81.05;100721.19;5044558;28;1072;-77
2022/10/30 12:45:10;;;;;;;;;;;;;;;7.30;80.93;100723.88;5041460;28;1805;-76
2022/10/30 12:50:04;;;;;;;;;;;;;;;7.31;81.41;100725.53;4990470;28;1474;-77
2022/10/30 12:52:30;;;;;;;;;;;;;;;7.31;81.00;100718.31;5006709;28;1188;-77
2022/10/30 12:54:57;;;;;;;;;;;;;;;7.31;81.37;100722.84;5010949;28;1707;-77
2022/10/30 12:57:23;;;;;;;;;;;;;;;7.31;81.31;100723.66;5000579;28;1994;-77